createdAt,value
2017-11-21T00:01:02.032Z,5.65
2017-11-21T00:02:11.137Z,5.72
2017-11-21T00:03:20.013Z,5.79
2017-11-21T00:04:28.844Z,5.78
2017-11-21T00:05:37.955Z,5.68
2017-11-21T00:06:46.781Z,5.72
2017-11-21T00:07:55.607Z,5.72
2017-11-21T00:09:04.436Z,5.67
2017-11-21T00:10:13.277Z,5.75
2017-11-21T00:11:22.089Z,5.67
2017-11-21T00:12:30.918Z,5.75
2017-11-21T00:13:40.024Z,5.67
2017-11-21T00:14:49.151Z,5.72
2017-11-21T00:15:57.977Z,5.72
2017-11-21T00:17:06.803Z,5.74
2017-11-21T00:18:15.633Z,5.75
2017-11-21T00:19:24.473Z,5.65
2017-11-21T00:20:33.282Z,5.72
2017-11-21T00:21:42.109Z,5.71
2017-11-21T00:22:50.933Z,5.65
2017-11-21T00:23:59.763Z,5.76
2017-11-21T00:25:08.870Z,5.68
2017-11-21T00:26:17.945Z,5.78
2017-11-21T00:27:26.773Z,5.82
2017-11-21T00:28:35.879Z,5.76
2017-11-21T00:29:44.706Z,5.78
2017-11-21T00:30:53.534Z,5.76
2017-11-21T00:32:02.415Z,5.74
2017-11-21T00:33:11.794Z,5.76
2017-11-21T00:34:20.622Z,5.71
2017-11-21T00:35:29.449Z,5.85
2017-11-21T00:36:38.276Z,5.85
2017-11-21T00:37:47.689Z,5.75
2017-11-21T00:38:56.516Z,5.67
2017-11-21T00:40:05.341Z,5.75
2017-11-21T00:41:14.175Z,5.75
2017-11-21T00:42:23.002Z,5.74
2017-11-21T00:43:32.123Z,5.91
2017-11-21T00:44:40.949Z,5.83
2017-11-21T00:45:50.054Z,5.81
2017-11-21T00:46:58.881Z,5.83
2017-11-21T00:48:07.987Z,5.83
2017-11-21T00:49:17.141Z,5.71
2017-11-21T00:50:25.965Z,5.68
2017-11-21T00:51:34.795Z,5.79
2017-11-21T00:52:43.619Z,5.78
2017-11-21T00:53:52.446Z,5.78
2017-11-21T00:55:01.473Z,5.91
2017-11-21T00:56:10.298Z,5.83
2017-11-21T00:57:19.131Z,5.85
2017-11-21T00:58:27.952Z,5.79
2017-11-21T00:59:36.780Z,5.85
2017-11-21T01:00:45.906Z,5.83
2017-11-21T01:01:54.738Z,5.82
2017-11-21T01:03:03.560Z,5.9
2017-11-21T01:04:12.388Z,5.89
2017-11-21T01:05:21.224Z,5.94
2017-11-21T01:06:30.191Z,5.89
2017-11-21T01:07:39.020Z,5.9
2017-11-21T01:08:47.849Z,5.97
2017-11-21T01:09:56.676Z,5.93
2017-11-21T01:11:05.506Z,5.94
2017-11-21T01:12:14.483Z,6
2017-11-21T01:13:23.310Z,5.93
2017-11-21T01:14:32.137Z,6.03
2017-11-21T01:15:41.249Z,6.03
2017-11-21T01:16:50.075Z,6
2017-11-21T01:17:59.000Z,5.94
2017-11-21T01:19:07.829Z,6
2017-11-21T01:20:16.659Z,5.97
2017-11-21T01:21:25.483Z,6.03
2017-11-21T01:22:34.314Z,5.99
2017-11-21T01:23:43.137Z,6.01
2017-11-21T01:24:51.963Z,6.04
2017-11-21T01:26:00.791Z,6.04
2017-11-21T01:27:09.618Z,6.03
2017-11-21T01:28:18.446Z,6.06
2017-11-21T01:29:27.272Z,6
2017-11-21T01:30:36.099Z,6
2017-11-21T01:31:44.929Z,5.97
2017-11-21T01:32:54.047Z,5.94
2017-11-21T01:34:02.866Z,6.06
2017-11-21T01:35:12.001Z,6.08
2017-11-21T01:36:21.107Z,6.06
2017-11-21T01:37:29.933Z,6.01
2017-11-21T01:38:39.040Z,5.94
2017-11-21T01:39:47.869Z,6.04
2017-11-21T01:40:56.744Z,5.99
2017-11-21T01:42:05.571Z,5.99
2017-11-21T01:43:14.397Z,5.99
2017-11-21T01:44:23.506Z,6.04
2017-11-21T01:45:32.332Z,6.04
2017-11-21T01:46:41.259Z,6.06
2017-11-21T01:47:50.093Z,6.08
2017-11-21T01:48:58.912Z,6.14
2017-11-21T01:50:07.740Z,6.01
2017-11-21T01:51:16.567Z,6.04
2017-11-21T01:52:25.594Z,6.09
2017-11-21T01:53:34.419Z,6.12
2017-11-21T01:54:43.527Z,6.12
2017-11-21T01:55:52.351Z,6.14
2017-11-21T01:57:01.176Z,6.17
2017-11-21T01:58:10.003Z,6.22
2017-11-21T01:59:18.830Z,6.22
2017-11-21T02:00:27.944Z,6.25
2017-11-21T02:01:36.775Z,6.14
2017-11-21T02:02:45.610Z,6.14
2017-11-21T02:03:54.430Z,6.14
2017-11-21T02:05:03.257Z,6.14
2017-11-21T02:06:12.083Z,6.14
2017-11-21T02:07:20.910Z,6.17
2017-11-21T02:08:29.741Z,6.18
2017-11-21T02:09:39.135Z,6.19
2017-11-21T02:10:47.961Z,6.17
2017-11-21T02:11:56.789Z,6.22
2017-11-21T02:13:05.619Z,6.25
2017-11-21T02:14:14.446Z,6.3
2017-11-21T02:15:23.273Z,6.3
2017-11-21T02:16:32.103Z,6.21
2017-11-21T02:17:41.211Z,6.22
2017-11-21T02:18:50.041Z,6.3
2017-11-21T02:19:58.867Z,6.3
2017-11-21T02:21:07.695Z,6.19
2017-11-21T02:22:16.521Z,6.27
2017-11-21T02:23:25.347Z,6.25
2017-11-21T02:24:34.174Z,6.3
2017-11-21T02:25:43.001Z,6.19
2017-11-21T02:26:51.825Z,6.17
2017-11-21T02:28:00.653Z,6.21
2017-11-21T02:29:09.486Z,6.25
2017-11-21T02:30:18.306Z,6.27
2017-11-21T02:31:27.133Z,6.27
2017-11-21T02:32:36.250Z,6.25
2017-11-21T02:33:45.086Z,6.25
2017-11-21T02:34:54.196Z,6.15
2017-11-21T02:36:03.022Z,6.09
2017-11-21T02:37:11.851Z,6.25
2017-11-21T02:38:20.961Z,6.22
2017-11-21T02:39:29.794Z,6.21
2017-11-21T02:40:38.623Z,6.25
2017-11-21T02:41:47.735Z,6.21
2017-11-21T02:42:56.561Z,6.31
2017-11-21T02:44:05.826Z,6.25
2017-11-21T02:45:14.658Z,6.22
2017-11-21T02:46:23.490Z,6.25
2017-11-21T02:47:32.313Z,6.3
2017-11-21T02:48:41.142Z,6.17
2017-11-21T02:49:49.969Z,6.18
2017-11-21T02:50:59.123Z,6.25
2017-11-21T02:52:07.940Z,6.28
2017-11-21T02:53:16.775Z,6.18
2017-11-21T02:54:26.173Z,6.17
2017-11-21T02:55:35.051Z,6.25
2017-11-21T02:56:43.879Z,6.21
2017-11-21T02:57:52.707Z,6.28
2017-11-21T02:59:01.532Z,6.31
2017-11-21T03:00:10.359Z,6.33
2017-11-21T03:01:19.283Z,6.22
2017-11-21T03:02:28.111Z,6.41
2017-11-21T03:03:36.944Z,6.38
2017-11-21T03:04:45.767Z,6.36
2017-11-21T03:05:54.871Z,6.28
2017-11-21T03:07:03.748Z,6.25
2017-11-21T03:08:12.585Z,6.33
2017-11-21T03:09:21.413Z,6.17
2017-11-21T03:10:30.239Z,6.25
2017-11-21T03:11:39.067Z,6.25
2017-11-21T03:12:48.044Z,6.25
2017-11-21T03:13:56.871Z,6.25
2017-11-21T03:15:05.976Z,6.27
2017-11-21T03:16:14.803Z,6.27
2017-11-21T03:17:23.631Z,6.28
2017-11-21T03:18:32.657Z,6.27
2017-11-21T03:19:41.488Z,6.37
2017-11-21T03:20:50.310Z,6.3
2017-11-21T03:21:59.135Z,6.38
2017-11-21T03:23:07.962Z,6.4
2017-11-21T03:24:16.888Z,6.43
2017-11-21T03:25:26.269Z,6.37
2017-11-21T03:26:35.096Z,6.33
2017-11-21T03:27:43.923Z,6.3
2017-11-21T03:28:52.749Z,6.37
2017-11-21T03:30:01.825Z,6.31
2017-11-21T03:31:10.653Z,6.31
2017-11-21T03:32:19.477Z,6.3
2017-11-21T03:33:28.317Z,6.3
2017-11-21T03:34:37.136Z,6.22
2017-11-21T03:35:45.962Z,6.3
2017-11-21T03:36:54.794Z,6.36
2017-11-21T03:38:03.616Z,6.31
2017-11-21T03:39:12.442Z,6.43
2017-11-21T03:40:21.269Z,6.25
2017-11-21T03:41:30.197Z,6.31
2017-11-21T03:42:39.028Z,6.3
2017-11-21T03:43:48.134Z,6.3
2017-11-21T03:44:56.960Z,6.31
2017-11-21T03:46:06.065Z,6.3
2017-11-21T03:47:14.943Z,6.22
2017-11-21T03:48:24.050Z,6.43
2017-11-21T03:49:33.156Z,6.33
2017-11-21T03:50:41.984Z,6.31
2017-11-21T03:51:50.813Z,6.33
2017-11-21T03:52:59.789Z,6.3
2017-11-21T03:54:08.618Z,6.44
2017-11-21T03:55:17.441Z,6.43
2017-11-21T03:56:26.272Z,6.33
2017-11-21T03:57:35.096Z,6.41
2017-11-21T03:58:43.922Z,6.41
2017-11-21T03:59:52.748Z,6.34
2017-11-21T04:01:01.580Z,6.37
2017-11-21T04:02:10.407Z,6.37
2017-11-21T04:03:19.235Z,6.36
2017-11-21T04:04:28.162Z,6.43
2017-11-21T04:05:37.000Z,6.38
2017-11-21T04:06:45.816Z,6.4
2017-11-21T04:07:54.643Z,6.41
2017-11-21T04:09:03.472Z,6.41
2017-11-21T04:10:12.349Z,6.38
2017-11-21T04:11:21.175Z,6.51
2017-11-21T04:12:30.006Z,6.49
2017-11-21T04:13:38.842Z,6.51
2017-11-21T04:14:47.658Z,6.46
2017-11-21T04:15:56.787Z,6.46
2017-11-21T04:17:05.614Z,6.43
2017-11-21T04:18:14.449Z,6.52
2017-11-21T04:19:23.280Z,6.51
2017-11-21T04:20:32.383Z,6.48
2017-11-21T04:21:41.560Z,6.4
2017-11-21T04:22:50.387Z,6.43
2017-11-21T04:23:59.214Z,6.51
2017-11-21T04:25:08.321Z,6.54
2017-11-21T04:26:17.148Z,6.58
2017-11-21T04:27:26.024Z,6.48
2017-11-21T04:28:34.851Z,6.51
2017-11-21T04:29:43.679Z,6.38
2017-11-21T04:30:52.506Z,6.52
2017-11-21T04:32:01.335Z,6.51
2017-11-21T04:33:10.214Z,6.55
2017-11-21T04:34:19.042Z,6.48
2017-11-21T04:35:27.868Z,6.54
2017-11-21T04:36:36.698Z,6.49
2017-11-21T04:37:45.535Z,6.54
2017-11-21T04:38:54.799Z,6.51
2017-11-21T04:40:03.626Z,6.55
2017-11-21T04:41:12.455Z,6.49
2017-11-21T04:42:21.280Z,6.48
2017-11-21T04:43:30.111Z,6.51
2017-11-21T04:44:39.039Z,6.44
2017-11-21T04:45:47.867Z,6.52
2017-11-21T04:46:56.699Z,6.62
2017-11-21T04:48:05.525Z,6.49
2017-11-21T04:49:14.353Z,6.59
2017-11-21T04:50:23.331Z,6.66
2017-11-21T04:51:32.159Z,6.66
2017-11-21T04:52:40.984Z,6.64
2017-11-21T04:53:50.089Z,6.64
2017-11-21T04:54:59.194Z,6.61
2017-11-21T04:56:08.075Z,6.61
2017-11-21T04:57:16.902Z,6.61
2017-11-21T04:58:25.730Z,6.58
2017-11-21T04:59:34.560Z,6.61
2017-11-21T05:00:43.388Z,6.64
2017-11-21T05:01:52.262Z,6.54
2017-11-21T05:03:01.089Z,6.59
2017-11-21T05:04:09.916Z,6.62
2017-11-21T05:05:18.743Z,6.58
2017-11-21T05:06:27.572Z,6.59
2017-11-21T05:07:36.398Z,6.66
2017-11-21T05:08:45.227Z,6.64
2017-11-21T05:09:54.059Z,6.62
2017-11-21T05:11:02.881Z,6.66
2017-11-21T05:12:11.715Z,6.69
2017-11-21T05:13:20.584Z,6.62
2017-11-21T05:14:29.412Z,6.64
2017-11-21T05:15:38.248Z,6.64
2017-11-21T05:16:47.077Z,6.61
2017-11-21T05:17:55.905Z,6.62
2017-11-21T05:19:04.831Z,6.74
2017-11-21T05:20:13.661Z,6.69
2017-11-21T05:21:22.763Z,6.66
2017-11-21T05:22:31.590Z,6.74
2017-11-21T05:23:40.417Z,6.71
2017-11-21T05:24:49.392Z,6.58
2017-11-21T05:25:58.227Z,6.71
2017-11-21T05:27:07.049Z,6.66
2017-11-21T05:28:15.877Z,6.7
2017-11-21T05:29:24.707Z,6.61
2017-11-21T05:30:33.533Z,6.66
2017-11-21T05:31:42.361Z,6.76
2017-11-21T05:32:51.189Z,6.69
2017-11-21T05:34:00.304Z,6.77
2017-11-21T05:35:09.124Z,6.64
2017-11-21T05:36:18.005Z,6.73
2017-11-21T05:37:26.837Z,6.7
2017-11-21T05:38:35.941Z,6.67
2017-11-21T05:39:44.769Z,6.67
2017-11-21T05:40:53.596Z,6.71
2017-11-21T05:42:02.428Z,6.73
2017-11-21T05:43:11.252Z,6.76
2017-11-21T05:44:20.129Z,6.73
2017-11-21T05:45:28.964Z,6.76
2017-11-21T05:46:38.069Z,6.79
2017-11-21T05:47:47.329Z,6.76
2017-11-21T05:48:56.158Z,6.87
2017-11-21T05:50:04.985Z,6.8
2017-11-21T05:51:13.815Z,6.85
2017-11-21T05:52:22.922Z,6.81
2017-11-21T05:53:32.385Z,6.84
2017-11-21T05:54:41.214Z,6.87
2017-11-21T05:55:50.045Z,6.85
2017-11-21T05:56:59.154Z,6.84
2017-11-21T05:58:07.983Z,6.87
2017-11-21T05:59:17.762Z,6.88
2017-11-21T06:00:26.589Z,6.89
2017-11-21T06:01:35.704Z,6.87
2017-11-21T06:02:44.584Z,6.91
2017-11-21T06:03:53.470Z,6.8
2017-11-21T06:05:02.602Z,6.84
2017-11-21T06:06:11.430Z,6.97
2017-11-21T06:07:20.544Z,6.87
2017-11-21T06:08:29.651Z,6.85
2017-11-21T06:09:38.480Z,6.88
2017-11-21T06:10:47.610Z,6.87
2017-11-21T06:11:56.436Z,6.77
2017-11-21T06:13:05.266Z,6.81
2017-11-21T06:14:14.095Z,6.92
2017-11-21T06:15:23.198Z,6.85
2017-11-21T06:16:32.375Z,6.92
2017-11-21T06:17:41.204Z,6.89
2017-11-21T06:18:50.034Z,6.87
2017-11-21T06:19:58.863Z,6.85
2017-11-21T06:21:07.693Z,6.84
2017-11-21T06:22:16.722Z,6.85
2017-11-21T06:23:25.553Z,6.77
2017-11-21T06:24:34.673Z,6.92
2017-11-21T06:25:43.502Z,6.84
2017-11-21T06:26:52.340Z,6.8
2017-11-21T06:28:01.446Z,6.87
2017-11-21T06:29:10.282Z,6.85
2017-11-21T06:30:19.122Z,6.84
2017-11-21T06:31:28.239Z,6.92
2017-11-21T06:32:37.162Z,6.88
2017-11-21T06:33:45.989Z,6.94
2017-11-21T06:34:54.820Z,6.88
2017-11-21T06:36:03.925Z,6.94
2017-11-21T06:37:13.012Z,6.87
2017-11-21T06:38:21.865Z,6.91
2017-11-21T06:39:30.701Z,6.91
2017-11-21T06:40:39.531Z,6.95
2017-11-21T06:41:48.361Z,6.92
2017-11-21T06:42:57.199Z,6.95
2017-11-21T06:44:06.741Z,6.88
2017-11-21T06:45:15.825Z,6.97
2017-11-21T06:46:24.652Z,6.98
2017-11-21T06:47:33.484Z,7.06
2017-11-21T06:48:42.317Z,7.05
2017-11-21T06:49:51.147Z,7.06
2017-11-21T06:51:00.292Z,7.02
2017-11-21T06:52:09.132Z,6.98
2017-11-21T06:53:18.000Z,7.03
2017-11-21T06:54:26.831Z,7.06
2017-11-21T06:55:35.662Z,6.99
2017-11-21T06:56:44.490Z,6.99
2017-11-21T06:57:53.319Z,7.06
2017-11-21T06:59:02.298Z,7.1
2017-11-21T07:00:11.127Z,7.13
2017-11-21T07:01:19.959Z,7.02
2017-11-21T07:02:29.065Z,7.06
2017-11-21T07:03:37.893Z,7.12
2017-11-21T07:04:46.724Z,7.15
2017-11-21T07:05:55.551Z,7.12
2017-11-21T07:07:04.382Z,7.13
2017-11-21T07:08:13.214Z,7.12
2017-11-21T07:09:22.041Z,7.15
2017-11-21T07:10:31.019Z,7.16
2017-11-21T07:11:39.851Z,7.12
2017-11-21T07:12:48.677Z,7.09
2017-11-21T07:13:57.502Z,7.13
2017-11-21T07:15:06.332Z,7.2
2017-11-21T07:16:15.321Z,7.2
2017-11-21T07:17:24.141Z,7.24
2017-11-21T07:18:32.971Z,7.24
2017-11-21T07:19:42.083Z,7.23
2017-11-21T07:20:50.911Z,7.17
2017-11-21T07:21:59.790Z,7.16
2017-11-21T07:23:08.618Z,7.16
2017-11-21T07:24:17.446Z,7.27
2017-11-21T07:25:26.274Z,7.25
2017-11-21T07:26:35.103Z,7.21
2017-11-21T07:27:44.209Z,7.17
2017-11-21T07:28:53.036Z,7.17
2017-11-21T07:30:01.867Z,7.17
2017-11-21T07:31:10.697Z,7.28
2017-11-21T07:32:19.803Z,7.27
2017-11-21T07:33:28.632Z,7.34
2017-11-21T07:34:37.462Z,7.31
2017-11-21T07:35:46.293Z,7.3
2017-11-21T07:36:55.122Z,7.31
2017-11-21T07:38:03.952Z,7.32
2017-11-21T07:39:12.881Z,7.27
2017-11-21T07:40:21.708Z,7.34
2017-11-21T07:41:30.538Z,7.34
2017-11-21T07:42:39.365Z,7.28
2017-11-21T07:43:48.202Z,7.3
2017-11-21T07:44:57.552Z,7.31
2017-11-21T07:46:06.387Z,7.31
2017-11-21T07:47:15.210Z,7.27
2017-11-21T07:48:24.037Z,7.34
2017-11-21T07:49:32.865Z,7.35
2017-11-21T07:50:41.844Z,7.34
2017-11-21T07:51:50.677Z,7.31
2017-11-21T07:52:59.520Z,7.27
2017-11-21T07:54:08.348Z,7.34
2017-11-21T07:55:17.173Z,7.34
2017-11-21T07:56:26.598Z,7.31
2017-11-21T07:57:35.418Z,7.35
2017-11-21T07:58:44.522Z,7.39
2017-11-21T07:59:53.352Z,7.34
2017-11-21T08:01:02.185Z,7.37
2017-11-21T08:02:11.109Z,7.43
2017-11-21T08:03:19.939Z,7.28
2017-11-21T08:04:28.770Z,7.48
2017-11-21T08:05:37.598Z,7.42
2017-11-21T08:06:46.427Z,7.39
2017-11-21T08:07:55.407Z,7.34
2017-11-21T08:09:04.239Z,7.35
2017-11-21T08:10:13.066Z,7.34
2017-11-21T08:11:21.895Z,7.43
2017-11-21T08:12:30.723Z,7.45
2017-11-21T08:13:39.609Z,7.37
2017-11-21T08:14:48.434Z,7.37
2017-11-21T08:15:57.541Z,7.34
2017-11-21T08:17:06.929Z,7.34
2017-11-21T08:18:15.758Z,7.31
2017-11-21T08:19:24.988Z,7.31
2017-11-21T08:20:33.816Z,7.37
2017-11-21T08:21:42.925Z,7.37
2017-11-21T08:22:51.755Z,7.35
2017-11-21T08:24:00.585Z,7.31
2017-11-21T08:25:09.511Z,7.32
2017-11-21T08:26:18.615Z,7.5
2017-11-21T08:27:27.447Z,7.45
2017-11-21T08:28:36.560Z,7.5
2017-11-21T08:29:45.382Z,7.45
2017-11-21T08:30:54.360Z,7.43
2017-11-21T08:32:03.188Z,7.4
2017-11-21T08:33:12.017Z,7.48
2017-11-21T08:34:20.846Z,7.46
2017-11-21T08:35:29.963Z,7.48
2017-11-21T08:36:38.792Z,7.48
2017-11-21T08:37:47.622Z,7.57
2017-11-21T08:38:56.451Z,7.55
2017-11-21T08:40:05.280Z,7.43
2017-11-21T08:41:14.114Z,7.45
2017-11-21T08:42:23.244Z,7.48
2017-11-21T08:43:32.073Z,7.48
2017-11-21T08:44:40.904Z,7.45
2017-11-21T08:45:49.736Z,7.46
2017-11-21T08:46:58.568Z,7.42
2017-11-21T08:48:07.545Z,7.5
2017-11-21T08:49:16.372Z,7.43
2017-11-21T08:50:25.205Z,7.48
2017-11-21T08:51:34.313Z,7.48
2017-11-21T08:52:43.417Z,7.45
2017-11-21T08:53:52.264Z,7.55
2017-11-21T08:55:01.129Z,7.52
2017-11-21T08:56:09.961Z,7.52
2017-11-21T08:57:18.787Z,7.55
2017-11-21T08:58:27.617Z,7.57
2017-11-21T08:59:36.496Z,7.58
2017-11-21T09:00:45.326Z,7.61
2017-11-21T09:01:54.152Z,7.53
2017-11-21T09:03:03.262Z,7.53
2017-11-21T09:04:12.092Z,7.55
2017-11-21T09:05:21.248Z,7.58
2017-11-21T09:06:30.079Z,7.58
2017-11-21T09:07:38.910Z,7.57
2017-11-21T09:08:48.024Z,7.55
2017-11-21T09:09:56.860Z,7.58
2017-11-21T09:11:05.783Z,7.55
2017-11-21T09:12:14.612Z,7.5
2017-11-21T09:13:23.439Z,7.43
2017-11-21T09:14:32.268Z,7.5
2017-11-21T09:15:41.096Z,7.46
2017-11-21T09:16:50.126Z,7.46
2017-11-21T09:17:58.956Z,7.48
2017-11-21T09:19:07.786Z,7.49
2017-11-21T09:20:16.614Z,7.52
2017-11-21T09:21:25.440Z,7.57
2017-11-21T09:22:34.276Z,7.61
2017-11-21T09:23:43.099Z,7.63
2017-11-21T09:24:51.931Z,7.68
2017-11-21T09:26:00.760Z,7.61
2017-11-21T09:27:09.867Z,7.72
2017-11-21T09:28:18.747Z,7.8
2017-11-21T09:29:27.576Z,7.83
2017-11-21T09:30:36.691Z,7.83
2017-11-21T09:31:45.520Z,7.8
2017-11-21T09:32:54.355Z,7.75
2017-11-21T09:34:03.184Z,7.86
2017-11-21T09:35:12.288Z,7.82
2017-11-21T09:36:21.116Z,7.89
2017-11-21T09:37:29.942Z,7.89
2017-11-21T09:38:38.770Z,7.9
2017-11-21T09:39:47.700Z,7.9
2017-11-21T09:40:56.527Z,7.87
2017-11-21T09:42:05.360Z,7.89
2017-11-21T09:43:14.191Z,7.87
2017-11-21T09:44:23.023Z,7.79
2017-11-21T09:45:32.256Z,7.82
2017-11-21T09:46:41.086Z,7.79
2017-11-21T09:47:49.917Z,7.79
2017-11-21T09:48:58.748Z,7.85
2017-11-21T09:50:07.857Z,7.83
2017-11-21T09:51:16.840Z,7.85
2017-11-21T09:52:25.665Z,7.86
2017-11-21T09:53:34.495Z,7.86
2017-11-21T09:54:43.325Z,7.93
2017-11-21T09:55:52.156Z,7.87
2017-11-21T09:57:01.041Z,7.89
2017-11-21T09:58:09.861Z,7.85
2017-11-21T09:59:18.692Z,7.87
2017-11-21T10:00:27.522Z,7.97
2017-11-21T10:01:36.350Z,7.86
2017-11-21T10:02:45.232Z,7.92
2017-11-21T10:03:54.336Z,7.83
2017-11-21T10:05:03.445Z,7.95
2017-11-21T10:06:12.275Z,7.93
2017-11-21T10:07:21.106Z,7.92
2017-11-21T10:08:29.985Z,7.92
2017-11-21T10:09:39.095Z,8
2017-11-21T10:10:48.214Z,7.97
2017-11-21T10:11:57.042Z,7.95
2017-11-21T10:13:05.871Z,7.89
2017-11-21T10:14:14.903Z,7.9
2017-11-21T10:15:23.734Z,7.87
2017-11-21T10:16:32.850Z,7.92
2017-11-21T10:17:41.680Z,7.93
2017-11-21T10:18:50.512Z,8.01
2017-11-21T10:19:59.541Z,7.92
2017-11-21T10:21:08.368Z,7.98
2017-11-21T10:22:17.199Z,8
2017-11-21T10:23:26.028Z,8.01
2017-11-21T10:24:34.855Z,8
2017-11-21T10:25:43.835Z,8.08
2017-11-21T10:26:52.944Z,8.05
2017-11-21T10:28:01.772Z,8.1
2017-11-21T10:29:10.886Z,8.16
2017-11-21T10:30:19.991Z,8.11
2017-11-21T10:31:28.970Z,8.1
2017-11-21T10:32:37.803Z,8.15
2017-11-21T10:33:46.635Z,8.22
2017-11-21T10:34:55.467Z,8.19
2017-11-21T10:36:04.298Z,8.12
2017-11-21T10:37:13.478Z,8.07
2017-11-21T10:38:22.310Z,8.1
2017-11-21T10:39:31.429Z,8.18
2017-11-21T10:40:40.261Z,8.15
2017-11-21T10:41:49.090Z,8.19
2017-11-21T10:42:58.321Z,8.12
2017-11-21T10:44:07.153Z,8.23
2017-11-21T10:45:15.984Z,8.2
2017-11-21T10:46:24.818Z,8.15
2017-11-21T10:47:33.642Z,8.16
2017-11-21T10:48:42.474Z,8.22
2017-11-21T10:49:51.304Z,8.26
2017-11-21T10:51:00.132Z,8.25
2017-11-21T10:52:08.961Z,8.26
2017-11-21T10:53:17.789Z,8.19
2017-11-21T10:54:26.620Z,8.3
2017-11-21T10:55:35.728Z,8.28
2017-11-21T10:56:44.833Z,8.25
2017-11-21T10:57:53.660Z,8.34
2017-11-21T10:59:02.488Z,8.16
2017-11-21T11:00:11.468Z,8.3
2017-11-21T11:01:20.298Z,8.33
2017-11-21T11:02:29.127Z,8.43
2017-11-21T11:03:37.958Z,8.28
2017-11-21T11:04:46.789Z,8.33
2017-11-21T11:05:55.674Z,8.29
2017-11-21T11:07:04.551Z,8.38
2017-11-21T11:08:13.376Z,8.44
2017-11-21T11:09:22.207Z,8.41
2017-11-21T11:10:31.315Z,8.41
2017-11-21T11:11:40.161Z,8.37
2017-11-21T11:12:48.996Z,8.44
2017-11-21T11:13:57.827Z,8.37
2017-11-21T11:15:06.659Z,8.41
2017-11-21T11:16:15.490Z,8.5
2017-11-21T11:17:24.367Z,8.47
2017-11-21T11:18:33.202Z,8.45
2017-11-21T11:19:42.035Z,8.47
2017-11-21T11:20:50.865Z,8.47
2017-11-21T11:21:59.709Z,8.53
2017-11-21T11:23:09.626Z,8.58
2017-11-21T11:24:18.737Z,8.59
2017-11-21T11:25:27.574Z,8.58
2017-11-21T11:26:36.406Z,8.59
2017-11-21T11:27:45.241Z,8.66
2017-11-21T11:28:54.412Z,8.66
2017-11-21T11:30:03.246Z,8.65
2017-11-21T11:31:12.082Z,8.71
2017-11-21T11:32:20.913Z,8.79
2017-11-21T11:33:30.019Z,8.73
2017-11-21T11:34:38.900Z,8.74
2017-11-21T11:35:48.009Z,8.77
2017-11-21T11:36:57.047Z,8.86
2017-11-21T11:38:06.090Z,8.91
2017-11-21T11:39:14.917Z,8.92
2017-11-21T11:40:23.897Z,8.92
2017-11-21T11:41:33.099Z,8.98
2017-11-21T11:42:42.266Z,8.96
2017-11-21T11:43:51.101Z,8.98
2017-11-21T11:44:59.927Z,9.04
2017-11-21T11:46:09.013Z,9.11
2017-11-21T11:47:17.891Z,9.11
2017-11-21T11:48:26.817Z,9.08
2017-11-21T11:49:35.923Z,9.1
2017-11-21T11:50:44.749Z,9.05
2017-11-21T11:51:53.643Z,9.13
2017-11-21T11:53:02.467Z,9.18
2017-11-21T11:54:11.337Z,9.14
2017-11-21T11:55:20.245Z,9.18
2017-11-21T11:56:29.326Z,9.24
2017-11-21T11:57:38.750Z,9.18
2017-11-21T11:58:48.377Z,9.23
2017-11-21T11:59:58.240Z,9.28
2017-11-21T12:01:07.188Z,9.18
2017-11-21T12:02:17.525Z,9.28
2017-11-21T12:03:26.768Z,9.26
2017-11-21T12:04:35.699Z,9.33
2017-11-21T12:05:45.097Z,9.32
2017-11-21T12:06:53.934Z,9.33
2017-11-21T12:08:03.480Z,9.28
2017-11-21T12:09:42.462Z,9.33
2017-11-21T12:10:52.983Z,9.39
2017-11-21T12:12:01.852Z,9.33
2017-11-21T12:13:10.979Z,9.4
2017-11-21T12:14:19.868Z,9.39
2017-11-21T12:15:29.031Z,9.4
2017-11-21T12:16:38.128Z,9.5
2017-11-21T12:17:47.591Z,9.54
2017-11-21T12:18:56.466Z,9.58
2017-11-21T12:20:05.533Z,9.56
2017-11-21T12:21:14.445Z,9.65
2017-11-21T12:22:23.286Z,9.71
2017-11-21T12:23:32.341Z,9.71
2017-11-21T12:24:41.813Z,9.72
2017-11-21T12:25:50.839Z,9.74
2017-11-21T12:27:00.561Z,9.78
2017-11-21T12:28:09.701Z,9.78
2017-11-21T12:29:19.295Z,9.78
2017-11-21T12:30:30.090Z,9.79
2017-11-21T12:31:40.040Z,9.81
2017-11-21T12:32:48.898Z,9.89
2017-11-21T12:33:58.230Z,9.89
2017-11-21T12:35:07.890Z,9.91
2017-11-21T12:36:17.047Z,9.93
2017-11-21T12:37:55.910Z,9.94
2017-11-21T12:39:05.291Z,9.96
2017-11-21T12:40:14.567Z,9.91
2017-11-21T12:41:23.653Z,10.02
2017-11-21T12:42:32.758Z,10.08
2017-11-21T12:43:41.808Z,10.02
2017-11-21T12:44:50.727Z,10.11
2017-11-21T12:45:59.801Z,10.12
2017-11-21T12:47:08.866Z,10.14
2017-11-21T12:48:18.100Z,10.12
2017-11-21T12:49:27.245Z,10.14
2017-11-21T12:50:37.910Z,10.23
2017-11-21T12:51:46.970Z,10.23
2017-11-21T12:52:56.099Z,10.18
2017-11-21T12:54:05.080Z,10.17
2017-11-21T12:55:14.467Z,10.26
2017-11-21T12:56:23.299Z,10.26
2017-11-21T12:57:32.135Z,10.23
2017-11-21T12:58:40.965Z,10.26
2017-11-21T12:59:49.900Z,10.29
2017-11-21T13:00:59.008Z,10.33
2017-11-21T13:02:08.122Z,10.4
2017-11-21T13:03:16.955Z,10.4
2017-11-21T13:04:25.788Z,10.38
2017-11-21T13:05:34.620Z,10.4
2017-11-21T13:06:43.447Z,10.42
2017-11-21T13:07:52.587Z,10.52
2017-11-21T13:09:01.418Z,10.44
2017-11-21T13:10:10.249Z,10.53
2017-11-21T13:11:19.132Z,10.48
2017-11-21T13:12:27.967Z,10.52
2017-11-21T13:13:36.798Z,10.56
2017-11-21T13:14:45.632Z,10.53
2017-11-21T13:15:54.756Z,10.63
2017-11-21T13:17:03.638Z,10.67
2017-11-21T13:18:12.470Z,10.59
2017-11-21T13:19:21.304Z,10.66
2017-11-21T13:20:30.145Z,10.63
2017-11-21T13:21:38.984Z,10.71
2017-11-21T13:22:48.344Z,10.74
2017-11-21T13:23:57.177Z,10.76
2017-11-21T13:25:06.010Z,10.74
2017-11-21T13:26:14.840Z,10.73
2017-11-21T13:27:23.951Z,10.76
2017-11-21T13:28:33.032Z,10.81
2017-11-21T13:29:41.864Z,10.79
2017-11-21T13:30:50.797Z,10.85
2017-11-21T13:31:59.631Z,10.81
2017-11-21T13:33:08.749Z,10.78
2017-11-21T13:34:17.632Z,10.84
2017-11-21T13:35:26.463Z,10.91
2017-11-21T13:36:35.578Z,10.91
2017-11-21T13:37:44.412Z,10.81
2017-11-21T13:38:53.519Z,10.81
2017-11-21T13:40:02.503Z,10.86
2017-11-21T13:41:11.338Z,10.88
2017-11-21T13:42:20.178Z,10.84
2017-11-21T13:43:29.308Z,10.92
2017-11-21T13:44:38.137Z,10.91
2017-11-21T13:45:46.968Z,10.92
2017-11-21T13:46:55.801Z,10.96
2017-11-21T13:48:04.637Z,10.97
2017-11-21T13:49:13.471Z,11.02
2017-11-21T13:50:22.601Z,10.94
2017-11-21T13:51:31.425Z,11.03
2017-11-21T13:52:40.260Z,10.99
2017-11-21T13:53:49.096Z,10.88
2017-11-21T13:54:57.923Z,10.99
2017-11-21T13:56:06.755Z,10.97
2017-11-21T13:57:15.585Z,11
2017-11-21T13:58:24.418Z,10.96
2017-11-21T13:59:33.526Z,11.03
2017-11-21T14:00:42.358Z,11.06
2017-11-21T14:01:51.192Z,10.94
2017-11-21T14:03:00.082Z,10.97
2017-11-21T14:04:09.194Z,10.96
2017-11-21T14:05:18.037Z,11.03
2017-11-21T14:06:27.149Z,11
2017-11-21T14:07:35.982Z,11
2017-11-21T14:08:44.915Z,11.07
2017-11-21T14:09:53.746Z,11.02
2017-11-21T14:11:02.577Z,11.06
2017-11-21T14:12:11.418Z,11.06
2017-11-21T14:13:20.241Z,11.02
2017-11-21T14:14:29.072Z,10.97
2017-11-21T14:15:37.907Z,11.04
2017-11-21T14:16:46.740Z,11.04
2017-11-21T14:17:55.580Z,10.99
2017-11-21T14:19:04.413Z,11.03
2017-11-21T14:20:13.311Z,11.04
2017-11-21T14:21:22.431Z,11.04
2017-11-21T14:22:31.266Z,11.04
2017-11-21T14:23:40.095Z,11.04
2017-11-21T14:24:49.209Z,11.06
2017-11-21T14:25:58.368Z,11.02
2017-11-21T14:27:07.199Z,11.06
2017-11-21T14:28:16.032Z,11.02
2017-11-21T14:29:24.865Z,11.04
2017-11-21T14:30:33.696Z,11.04
2017-11-21T14:31:42.579Z,11.06
2017-11-21T14:32:51.410Z,10.99
2017-11-21T14:34:00.244Z,11.1
2017-11-21T14:35:09.357Z,10.99
2017-11-21T14:36:18.187Z,11.06
2017-11-21T14:37:27.071Z,11.09
2017-11-21T14:38:35.902Z,11.07
2017-11-21T14:39:44.734Z,11.11
2017-11-21T14:40:53.845Z,11.09
2017-11-21T14:42:02.677Z,11.09
2017-11-21T14:43:11.717Z,11.04
2017-11-21T14:44:20.555Z,11.03
2017-11-21T14:45:29.379Z,11
2017-11-21T14:46:38.211Z,11.1
2017-11-21T14:47:47.045Z,10.97
2017-11-21T14:48:56.027Z,10.99
2017-11-21T14:50:04.861Z,11.03
2017-11-21T14:51:13.695Z,11.04
2017-11-21T14:52:22.531Z,11.06
2017-11-21T14:53:31.367Z,11.03
2017-11-21T14:54:40.197Z,11.03
2017-11-21T14:55:49.038Z,11.06
2017-11-21T14:56:57.863Z,11.04
2017-11-21T14:58:06.697Z,11.04
2017-11-21T14:59:15.530Z,11.04
2017-11-21T15:00:24.515Z,11.04
2017-11-21T15:01:33.348Z,10.97
2017-11-21T15:02:42.179Z,10.97
2017-11-21T15:03:51.011Z,11.03
2017-11-21T15:04:59.853Z,11.06
2017-11-21T15:06:08.730Z,11.03
2017-11-21T15:07:17.565Z,10.99
2017-11-21T15:08:26.405Z,11.02
2017-11-21T15:09:35.230Z,10.99
2017-11-21T15:10:44.062Z,10.99
2017-11-21T15:11:53.205Z,11.04
2017-11-21T15:13:02.038Z,11.02
2017-11-21T15:14:10.872Z,10.96
2017-11-21T15:15:19.712Z,11.02
2017-11-21T15:16:28.539Z,10.97
2017-11-21T15:17:37.623Z,11.03